Time;durP1;ratioP1;P1;durP2;ratioP2;P2;SDS_P1;SDS_P2;PMS_P1;PMS_P2;Temp;Humidity;BMP_temperature;BMP_pressure;BME280_temperature;BME280_humidity;BME280_pressure;Samples;Min_cycle;Max_cycle;Signal;HPM_P1;HPM_P2
2023/07/06 00:00:31;;;;;;;4.70;1.52;;;13.40;99.90;;;;;;5135392;27;20062;-51
2023/07/06 00:02:57;;;;;;;3.60;1.35;;;13.40;99.90;;;;;;5135719;27;20372;-48
2023/07/06 00:05:23;;;;;;;4.13;1.50;;;13.40;99.90;;;;;;5135474;27;20510;-51
2023/07/06 00:07:49;;;;;;;4.07;1.20;;;13.40;99.90;;;;;;5135568;27;20043;-48
2023/07/06 00:10:14;;;;;;;4.97;1.83;;;13.40;99.90;;;;;;5135310;27;20380;-49
2023/07/06 00:12:40;;;;;;;4.23;1.53;;;13.40;99.90;;;;;;5135276;27;20082;-48
2023/07/06 00:15:07;;;;;;;6.00;1.97;;;13.40;99.90;;;;;;5135243;27;20035;-48
2023/07/06 00:17:34;;;;;;;4.00;1.67;;;13.50;99.90;;;;;;5135079;27;20101;-50
2023/07/06 00:20:00;;;;;;;3.23;1.40;;;13.50;99.90;;;;;;5135291;27;20047;-50
2023/07/06 00:22:26;;;;;;;3.03;1.40;;;13.40;99.90;;;;;;5135039;27;20043;-49
2023/07/06 00:24:52;;;;;;;4.05;1.67;;;13.50;99.90;;;;;;5135047;27;20043;-50
2023/07/06 00:27:17;;;;;;;5.10;2.00;;;13.50;99.90;;;;;;5116701;27;20112;-52
2023/07/06 00:29:56;;;;;;;4.63;1.60;;;13.40;99.90;;;;;;5135034;27;20081;-49
2023/07/06 00:32:28;;;;;;;3.67;1.50;;;13.50;99.90;;;;;;5135101;27;20043;-49
2023/07/06 00:34:59;;;;;;;4.18;1.48;;;13.40;99.90;;;;;;5135417;27;20099;-49
2023/07/06 00:37:26;;;;;;;3.90;1.60;;;13.40;99.90;;;;;;5116866;27;20043;-50
2023/07/06 00:39:52;;;;;;;4.07;1.77;;;13.40;99.90;;;;;;5116725;27;20051;-48
2023/07/06 00:42:22;;;;;;;4.10;1.33;;;13.40;99.90;;;;;;5134591;27;20065;-50
2023/07/06 00:44:59;;;;;;;4.43;1.80;;;13.40;99.90;;;;;;5135062;27;20039;-49
2023/07/06 00:47:51;;;;;;;3.75;1.58;;;13.40;99.90;;;;;;5135205;27;20089;-49
2023/07/06 00:50:20;;;;;;;4.53;1.60;;;13.30;99.90;;;;;;5134946;27;20053;-50
2023/07/06 00:52:51;;;;;;;6.80;1.77;;;13.30;99.90;;;;;;5134500;27;20121;-53
2023/07/06 00:55:19;;;;;;;4.32;1.48;;;13.30;99.90;;;;;;5134852;27;20118;-49
2023/07/06 00:57:51;;;;;;;4.05;1.60;;;13.20;99.90;;;;;;5116090;28;20119;-52
2023/07/06 01:00:20;;;;;;;5.80;2.00;;;13.20;99.90;;;;;;5134728;27;20054;-51
2023/07/06 01:02:51;;;;;;;4.20;1.75;;;13.20;99.90;;;;;;5116402;27;20051;-49
2023/07/06 01:05:18;;;;;;;3.90;1.60;;;13.20;99.90;;;;;;5134340;28;20411;-49
2023/07/06 01:07:45;;;;;;;5.90;1.85;;;13.20;99.90;;;;;;5134561;28;20494;-47
2023/07/06 01:10:13;;;;;;;5.22;2.15;;;13.20;99.90;;;;;;5116592;28;20043;-48
2023/07/06 01:12:39;;;;;;;4.47;1.80;;;13.20;99.90;;;;;;5116393;28;20082;-52
2023/07/06 01:15:06;;;;;;;5.97;1.80;;;13.20;99.90;;;;;;5134605;28;20079;-51
2023/07/06 01:18:02;;;;;;;5.15;2.40;;;13.20;99.90;;;;;;5116224;28;20049;-48
2023/07/06 01:20:56;;;;;;;7.00;2.25;;;13.10;99.90;;;;;;5132405;28;20130;-51
2023/07/06 01:23:37;;;;;;;5.47;1.95;;;13.10;99.90;;;;;;5130108;28;20047;-48
2023/07/06 01:26:23;;;;;;;5.65;2.33;;;13.10;99.90;;;;;;5134278;28;20496;-49
2023/07/06 01:29:12;;;;;;;4.47;1.90;;;13.10;99.90;;;;;;5134513;28;20043;-48
2023/07/06 01:31:58;;;;;;;4.50;1.85;;;13.10;99.90;;;;;;5134635;28;20047;-49
2023/07/06 01:34:32;;;;;;;3.92;1.92;;;13.00;99.90;;;;;;5135277;27;20040;-52
2023/07/06 01:37:09;;;;;;;6.05;2.25;;;13.10;99.90;;;;;;5138479;27;20369;-50
2023/07/06 01:39:35;;;;;;;7.30;2.45;;;13.10;99.90;;;;;;5138549;27;20047;-50
2023/07/06 01:42:10;;;;;;;4.72;2.35;;;13.10;99.90;;;;;;5138353;27;20039;-50
2023/07/06 01:44:46;;;;;;;6.00;2.40;;;13.10;99.90;;;;;;5138269;27;20096;-49
2023/07/06 01:47:14;;;;;;;4.82;2.00;;;13.10;99.90;;;;;;5138219;27;20411;-51
2023/07/06 01:49:40;;;;;;;5.53;2.28;;;13.10;99.90;;;;;;5137988;27;20641;-50
2023/07/06 01:52:29;;;;;;;6.50;2.35;;;13.10;99.90;;;;;;5120075;27;20047;-49
2023/07/06 01:55:09;;;;;;;5.05;2.22;;;13.00;99.90;;;;;;5138310;27;20035;-51
2023/07/06 01:57:52;;;;;;;4.65;2.25;;;13.00;99.90;;;;;;5137832;27;20143;-51
2023/07/06 02:00:19;;;;;;;6.65;2.60;;;13.00;99.90;;;;;;5138521;27;20043;-49
2023/07/06 02:02:48;;;;;;;5.40;1.98;;;13.00;99.90;;;;;;5119651;27;20126;-51
2023/07/06 02:05:15;;;;;;;6.68;2.80;;;13.00;99.90;;;;;;5137838;27;20047;-50
2023/07/06 02:07:42;;;;;;;5.72;2.17;;;13.00;99.90;;;;;;5119509;27;20043;-49
2023/07/06 02:10:12;;;;;;;4.97;2.40;;;13.00;99.90;;;;;;5137518;27;20516;-49
2023/07/06 02:12:38;;;;;;;6.78;2.90;;;13.00;99.90;;;;;;5137829;27;20053;-48
2023/07/06 02:15:06;;;;;;;6.67;2.87;;;13.00;99.90;;;;;;5119402;27;20126;-50
2023/07/06 02:17:32;;;;;;;5.28;2.63;;;13.00;99.90;;;;;;5137826;27;20125;-49
2023/07/06 02:19:59;;;;;;;5.78;2.50;;;13.00;99.90;;;;;;5137563;27;20130;-49
2023/07/06 02:22:27;;;;;;;4.28;2.05;;;13.10;99.90;;;;;;5137469;27;20054;-50
2023/07/06 02:24:53;;;;;;;5.78;2.60;;;13.10;99.90;;;;;;5137476;27;20043;-50
2023/07/06 02:27:19;;;;;;;8.07;2.93;;;13.10;99.90;;;;;;5137583;27;20046;-48
2023/07/06 02:29:45;;;;;;;5.07;2.47;;;13.10;99.90;;;;;;5137438;27;20698;-47
2023/07/06 02:32:11;;;;;;;;;;;13.10;99.90;;;;;;5102781;27;20083;-49
2023/07/06 02:34:37;;;;;;;5.68;2.63;;;13.20;99.90;;;;;;5137243;27;20008;-53
2023/07/06 02:37:03;;;;;;;7.25;2.80;;;13.20;99.90;;;;;;5137149;27;20049;-48
2023/07/06 02:39:30;;;;;;;8.70;3.22;;;13.20;99.90;;;;;;5137354;27;20082;-51
2023/07/06 02:41:58;;;;;;;4.97;2.50;;;13.20;99.90;;;;;;5137277;27;20065;-48
2023/07/06 02:44:24;;;;;;;5.72;2.35;;;13.20;99.90;;;;;;5118792;27;20438;-48
2023/07/06 02:46:51;;;;;;;6.07;2.42;;;13.20;99.90;;;;;;5117743;27;20491;-49
2023/07/06 02:49:17;;;;;;;8.07;2.90;;;13.30;99.90;;;;;;5136838;27;20526;-49
2023/07/06 02:51:43;;;;;;;6.60;2.60;;;13.30;99.90;;;;;;5136960;27;20055;-48
2023/07/06 02:54:12;;;;;;;5.35;2.50;;;13.30;99.90;;;;;;5137053;27;20454;-47
2023/07/06 02:56:38;;;;;;;6.35;2.47;;;13.30;99.90;;;;;;5136633;27;20455;-46
2023/07/06 02:59:04;;;;;;;6.23;2.70;;;13.30;99.90;;;;;;5137059;27;20086;-51
2023/07/06 03:01:29;;;;;;;4.87;2.37;;;13.30;99.90;;;;;;5136779;27;20518;-46
2023/07/06 03:03:55;;;;;;;6.73;3.30;;;13.40;99.90;;;;;;5136559;27;20306;-50
2023/07/06 03:06:21;;;;;;;6.00;2.87;;;13.40;99.90;;;;;;5136686;27;20039;-48
2023/07/06 03:08:47;;;;;;;5.93;2.63;;;13.30;99.90;;;;;;5136993;27;20043;-49
2023/07/06 03:11:14;;;;;;;6.68;2.60;;;13.40;99.90;;;;;;5136829;27;20125;-49
2023/07/06 03:13:41;;;;;;;5.20;2.33;;;13.40;99.90;;;;;;5136628;27;20043;-50
2023/07/06 03:16:08;;;;;;;7.30;2.75;;;13.30;99.90;;;;;;5136551;27;20054;-48
2023/07/06 03:18:33;;;;;;;6.00;2.47;;;13.40;99.90;;;;;;5136302;27;20043;-51
2023/07/06 03:21:00;;;;;;;6.07;2.67;;;13.40;99.90;;;;;;5136314;27;20042;-48
2023/07/06 03:23:27;;;;;;;5.72;2.30;;;13.40;99.90;;;;;;5136271;27;20411;-49
2023/07/06 03:25:53;;;;;;;6.72;2.83;;;13.40;99.90;;;;;;5136278;27;20047;-48
2023/07/06 03:28:21;;;;;;;7.63;2.95;;;13.40;99.90;;;;;;5136312;27;20475;-48
2023/07/06 03:30:54;;;;;;;7.10;2.92;;;13.40;99.90;;;;;;5117920;27;20109;-49
2023/07/06 03:33:19;;;;;;;6.00;2.55;;;13.30;99.90;;;;;;5135976;27;20039;-49
2023/07/06 03:35:45;;;;;;;5.77;2.60;;;13.30;99.90;;;;;;5117874;27;20099;-49
2023/07/06 03:38:12;;;;;;;4.83;2.30;;;13.30;99.90;;;;;;5136090;27;20057;-49
2023/07/06 03:40:38;;;;;;;5.30;2.30;;;13.30;99.90;;;;;;5117939;27;20109;-49
2023/07/06 03:43:04;;;;;;;4.00;2.10;;;13.30;99.90;;;;;;5135896;27;20111;-49
2023/07/06 03:45:30;;;;;;;6.25;2.88;;;13.30;99.90;;;;;;5135811;27;20066;-52
2023/07/06 03:47:56;;;;;;;8.25;3.25;;;13.30;99.90;;;;;;5117604;27;20051;-49
2023/07/06 03:50:22;;;;;;;5.90;2.73;;;13.20;99.90;;;;;;5136091;27;20069;-50
2023/07/06 03:52:48;;;;;;;7.37;2.83;;;13.20;99.90;;;;;;5135902;27;20043;-50
2023/07/06 03:55:20;;;;;;;5.57;2.60;;;13.20;99.90;;;;;;5136154;27;20122;-51
2023/07/06 03:57:47;;;;;;;5.47;2.45;;;13.20;99.90;;;;;;5135354;27;20476;-53
2023/07/06 04:00:19;;;;;;;5.65;2.83;;;13.20;99.90;;;;;;5135690;27;20119;-49
2023/07/06 04:02:56;;;;;;;8.35;2.83;;;13.20;99.90;;;;;;5136037;27;20046;-50
2023/07/06 04:05:24;;;;;;;5.75;2.50;;;13.20;99.90;;;;;;5117283;27;20047;-49
2023/07/06 04:07:52;;;;;;;5.35;2.58;;;13.20;99.90;;;;;;5135405;27;20104;-50
2023/07/06 04:10:22;;;;;;;7.10;2.63;;;13.20;99.90;;;;;;5135367;27;20043;-50
2023/07/06 04:12:50;;;;;;;7.53;2.60;;;13.30;99.90;;;;;;5135276;27;20519;-50
2023/07/06 04:15:17;;;;;;;4.90;2.30;;;13.30;99.90;;;;;;5135066;27;20039;-53
2023/07/06 04:17:47;;;;;;;5.90;2.90;;;13.30;99.90;;;;;;5117183;27;20133;-53
2023/07/06 04:20:19;;;;;;;5.97;2.60;;;13.30;99.90;;;;;;5117178;27;20050;-48
2023/07/06 04:22:48;;;;;;;6.45;2.42;;;13.40;99.90;;;;;;5135385;27;20050;-49
2023/07/06 04:25:15;;;;;;;5.55;2.75;;;13.40;99.90;;;;;;5135138;27;20051;-50
2023/07/06 04:27:42;;;;;;;5.95;2.90;;;13.40;99.90;;;;;;5135011;27;20388;-49
2023/07/06 04:30:11;;;;;;;6.32;2.20;;;13.40;99.90;;;;;;5135242;27;20402;-53
2023/07/06 04:32:36;;;;;;;4.82;2.40;;;13.50;99.90;;;;;;5134965;27;20043;-51
2023/07/06 04:35:03;;;;;;;6.03;2.67;;;13.50;99.90;;;;;;5116802;27;20100;-49
2023/07/06 04:37:31;;;;;;;6.40;2.60;;;13.60;99.90;;;;;;5134835;27;20050;-50
2023/07/06 04:39:57;;;;;;;6.00;2.80;;;13.50;99.90;;;;;;5135004;27;20126;-51
2023/07/06 04:42:27;;;;;;;5.53;2.22;;;13.60;99.90;;;;;;5134740;27;20123;-51
2023/07/06 04:44:56;;;;;;;7.53;2.70;;;13.60;99.90;;;;;;5135089;27;20079;-48
2023/07/06 04:47:23;;;;;;;7.10;2.42;;;13.70;99.90;;;;;;5135000;27;20112;-52
2023/07/06 04:49:50;;;;;;;5.57;2.47;;;13.70;99.90;;;;;;5116656;28;20125;-52
2023/07/06 04:52:16;;;;;;;6.43;2.30;;;13.70;99.90;;;;;;5116719;27;20047;-51
2023/07/06 04:54:42;;;;;;;5.53;2.92;;;13.80;99.90;;;;;;5116612;27;20392;-48
2023/07/06 04:57:13;;;;;;;6.90;2.60;;;13.80;99.90;;;;;;5134910;27;20511;-50
2023/07/06 04:59:40;;;;;;;4.63;1.92;;;13.80;99.90;;;;;;5134672;27;20300;-51
2023/07/06 05:02:06;;;;;;;5.32;2.05;;;13.80;99.90;;;;;;5134606;27;20054;-50
2023/07/06 05:04:32;;;;;;;5.65;2.47;;;13.80;99.90;;;;;;5134436;27;20039;-53
2023/07/06 05:06:58;;;;;;;6.60;2.77;;;13.80;99.90;;;;;;5116337;28;20047;-53
2023/07/06 05:09:24;;;;;;;7.13;2.50;;;13.80;99.90;;;;;;5115602;28;20341;-53
2023/07/06 05:11:52;;;;;;;5.88;2.50;;;13.80;99.90;;;;;;5134560;28;20051;-52
2023/07/06 05:14:19;;;;;;;4.90;2.13;;;13.90;99.90;;;;;;5134692;28;20035;-52
2023/07/06 05:16:45;;;;;;;5.18;2.45;;;14.10;99.90;;;;;;5116257;28;20129;-52
2023/07/06 05:19:10;;;;;;;8.10;2.63;;;14.50;99.90;;;;;;5116131;28;20127;-53
2023/07/06 05:21:36;;;;;;;5.40;2.43;;;14.80;99.90;;;;;;5134410;28;20043;-49
2023/07/06 05:24:02;;;;;;;6.80;2.47;;;15.30;99.90;;;;;;5134072;28;20387;-48
2023/07/06 05:26:28;;;;;;;7.07;2.63;;;15.90;99.90;;;;;;5134418;28;20101;-48
2023/07/06 05:28:54;;;;;;;5.63;2.83;;;16.20;99.90;;;;;;5134229;28;20506;-48
2023/07/06 05:31:19;;;;;;;6.18;2.78;;;16.10;99.90;;;;;;5134302;28;20047;-52
2023/07/06 05:33:45;;;;;;;6.45;2.75;;;15.90;99.90;;;;;;5116085;28;20369;-49
2023/07/06 05:36:11;;;;;;;8.98;2.88;;;15.80;99.90;;;;;;5134365;28;20043;-52
2023/07/06 05:38:37;;;;;;;7.73;3.17;;;15.70;99.90;;;;;;5134008;28;20039;-51
2023/07/06 05:41:03;;;;;;;5.70;2.43;;;15.70;99.90;;;;;;5134348;28;20570;-53
2023/07/06 05:43:29;;;;;;;;;;;15.70;99.90;;;;;;5134646;28;20071;-53
2023/07/06 05:45:54;;;;;;;5.22;2.22;;;15.70;99.90;;;;;;5134225;28;20384;-53
2023/07/06 05:48:20;;;;;;;6.40;2.80;;;15.70;99.90;;;;;;5134162;28;20054;-52
2023/07/06 05:50:46;;;;;;;5.40;2.47;;;15.70;99.90;;;;;;5134111;28;20043;-52
2023/07/06 05:53:13;;;;;;;6.88;2.83;;;15.70;99.90;;;;;;5115893;28;20043;-53
2023/07/06 05:55:43;;;;;;;;;;;15.70;99.90;;;;;;5134530;28;20130;-53
2023/07/06 05:58:13;;;;;;;7.68;3.10;;;15.70;99.90;;;;;;5134043;28;19919;-66
2023/07/06 06:00:39;;;;;;;5.82;2.97;;;15.70;99.90;;;;;;5133949;28;20093;-65
2023/07/06 06:03:06;;;;;;;8.07;2.92;;;15.70;99.90;;;;;;5133939;28;20039;-69
2023/07/06 06:05:33;;;;;;;7.05;2.90;;;15.70;99.90;;;;;;5133949;28;20108;-68
2023/07/06 06:08:00;;;;;;;6.03;2.55;;;15.70;99.90;;;;;;5133840;28;20161;-70
2023/07/06 06:10:26;;;;;;;8.13;3.40;;;15.70;99.90;;;;;;5134010;28;20047;-53
2023/07/06 06:12:52;;;;;;;7.65;3.58;;;15.70;99.90;;;;;;5115912;28;20502;-52
2023/07/06 06:15:18;;;;;;;14.63;3.97;;;15.70;99.90;;;;;;5133748;28;20043;-54
2023/07/06 06:17:44;;;;;;;6.33;3.03;;;15.70;99.90;;;;;;5133922;28;20372;-53
2023/07/06 06:20:10;;;;;;;8.32;3.45;;;15.70;99.90;;;;;;5134123;27;20323;-52
2023/07/06 06:22:37;;;;;;;10.82;4.03;;;15.80;99.90;;;;;;5119558;27;20386;-53
2023/07/06 06:25:02;;;;;;;;;;;15.90;99.90;;;;;;5137926;27;20117;-53
2023/07/06 06:27:29;;;;;;;7.15;3.10;;;15.90;99.90;;;;;;5137316;27;20036;-50
2023/07/06 06:29:55;;;;;;;9.02;3.13;;;16.00;99.90;;;;;;5137369;27;20130;-48
2023/07/06 06:32:22;;;;;;;7.25;3.00;;;16.10;99.90;;;;;;5137472;27;20047;-52
2023/07/06 06:34:47;;;;;;;;;;;16.10;99.90;;;;;;5137510;27;20047;-52
2023/07/06 06:37:16;;;;;;;5.22;2.70;;;16.10;99.90;;;;;;5137357;27;19920;-54
2023/07/06 06:39:43;;;;;;;11.57;3.10;;;16.20;99.90;;;;;;5137282;27;20537;-51
2023/07/06 06:42:09;;;;;;;7.35;3.22;;;16.20;99.90;;;;;;5119107;27;20514;-49
2023/07/06 06:44:35;;;;;;;;;;;16.30;99.90;;;;;;5137439;27;20050;-53
2023/07/06 06:47:04;;;;;;;7.32;3.13;;;16.30;99.90;;;;;;5119039;27;20013;-51
2023/07/06 06:49:30;;;;;;;7.15;2.80;;;16.40;99.90;;;;;;5136851;27;20094;-53
2023/07/06 06:51:56;;;;;;;6.93;2.80;;;16.50;99.90;;;;;;5136991;27;20487;-48
2023/07/06 06:54:22;;;;;;;7.18;2.90;;;16.50;99.90;;;;;;5119020;27;20135;-54
2023/07/06 06:56:49;;;;;;;6.90;2.65;;;16.60;99.90;;;;;;5136627;27;20039;-51
2023/07/06 06:59:15;;;;;;;9.80;2.50;;;16.70;99.90;;;;;;5118794;27;20042;-50
2023/07/06 07:01:41;;;;;;;7.45;2.90;;;16.90;99.90;;;;;;5136607;27;20515;-54
2023/07/06 07:04:09;;;;;;;7.20;2.95;;;17.00;99.90;;;;;;5136585;27;20039;-55
2023/07/06 07:06:36;;;;;;;6.90;2.47;;;17.10;99.90;;;;;;5136800;27;20126;-54
2023/07/06 07:09:02;;;;;;;6.85;2.75;;;17.10;99.90;;;;;;5118443;27;20043;-53
2023/07/06 07:11:28;;;;;;;6.15;2.45;;;17.20;99.90;;;;;;5118587;27;20051;-54
2023/07/06 07:13:54;;;;;;;7.50;2.70;;;17.20;99.90;;;;;;5136698;27;20043;-53
2023/07/06 07:16:21;;;;;;;7.20;2.40;;;17.20;99.90;;;;;;5136538;27;20054;-53
2023/07/06 07:18:47;;;;;;;;;;;17.30;99.90;;;;;;5136875;27;20396;-49
2023/07/06 07:21:14;;;;;;;6.47;2.60;;;17.30;99.90;;;;;;5136503;27;19919;-54
2023/07/06 07:23:48;;;;;;;7.80;2.67;;;17.40;99.90;;;;;;5136345;27;20103;-55
2023/07/06 07:26:16;;;;;;;6.00;2.25;;;17.50;99.90;;;;;;5118121;27;20095;-51
2023/07/06 07:28:42;;;;;;;4.35;1.92;;;17.70;99.90;;;;;;5136123;27;20043;-49
2023/07/06 07:31:11;;;;;;;5.25;2.28;;;17.90;99.90;;;;;;5136101;27;20050;-52
2023/07/06 07:33:38;;;;;;;7.00;3.30;;;18.30;99.90;;;;;;5135561;27;20054;-51
2023/07/06 07:36:05;;;;;;;9.77;2.63;;;18.60;99.90;;;;;;5136139;27;20054;-49
2023/07/06 07:38:31;;;;;;;7.07;2.67;;;18.80;99.90;;;;;;5136128;27;20415;-53
2023/07/06 07:41:02;;;;;;;5.97;2.35;;;18.80;99.90;;;;;;5117855;27;20058;-52
2023/07/06 07:43:29;;;;;;;5.65;2.17;;;18.70;99.90;;;;;;5136044;27;20108;-52
2023/07/06 07:46:00;;;;;;;5.72;2.05;;;18.60;99.90;;;;;;5135672;27;20395;-48
2023/07/06 07:48:27;;;;;;;6.55;2.20;;;18.50;99.90;;;;;;5136016;27;20043;-54
2023/07/06 07:50:58;;;;;;;4.43;1.33;;;18.40;99.90;;;;;;5135859;27;20077;-52
2023/07/06 07:53:26;;;;;;;5.70;1.50;;;18.30;99.90;;;;;;5117708;27;20526;-54
2023/07/06 07:55:56;;;;;;;3.28;1.40;;;18.30;99.90;;;;;;5117388;27;20047;-48
2023/07/06 07:58:23;;;;;;;3.05;1.00;;;18.20;99.90;;;;;;5117223;27;20507;-53
2023/07/06 08:00:51;;;;;;;4.20;1.48;;;18.20;99.90;;;;;;5135453;27;20050;-54
2023/07/06 08:03:17;;;;;;;4.13;1.00;;;18.20;99.90;;;;;;5135665;27;20051;-53
2023/07/06 08:05:43;;;;;;;4.85;1.40;;;18.20;99.90;;;;;;5135548;27;20065;-52
2023/07/06 08:08:10;;;;;;;5.30;1.13;;;18.20;99.90;;;;;;5135459;27;20043;-50
2023/07/06 08:10:38;;;;;;;4.20;1.02;;;18.20;99.90;;;;;;5135450;27;20552;-53
2023/07/06 08:13:06;;;;;;;2.58;0.80;;;18.20;99.90;;;;;;5135376;27;20062;-54
2023/07/06 08:15:32;;;;;;;2.47;0.75;;;18.20;99.90;;;;;;5135461;27;20039;-53
2023/07/06 08:18:00;;;;;;;4.45;1.00;;;18.30;99.90;;;;;;5135398;27;20407;-55
2023/07/06 08:20:29;;;;;;;3.47;1.10;;;18.30;99.90;;;;;;5135254;27;20096;-55
2023/07/06 08:22:59;;;;;;;4.60;1.10;;;18.30;99.90;;;;;;5135224;27;20088;-55
2023/07/06 08:25:27;;;;;;;3.17;0.90;;;18.30;99.90;;;;;;5135128;27;20043;-54
2023/07/06 08:27:55;;;;;;;4.22;1.38;;;18.30;99.90;;;;;;5135124;27;20043;-54
2023/07/06 08:30:21;;;;;;;2.30;0.90;;;18.20;99.90;;;;;;5135074;27;20046;-52
2023/07/06 08:32:50;;;;;;;;;;;18.10;99.90;;;;;;5135430;27;20051;-52
2023/07/06 08:35:19;;;;;;;4.55;1.33;;;18.00;99.90;;;;;;5134887;27;20332;-54
2023/07/06 08:37:45;;;;;;;2.47;0.93;;;18.00;99.90;;;;;;5117016;27;20047;-54
2023/07/06 08:40:17;;;;;;;1.25;0.60;;;17.90;99.90;;;;;;5134789;27;20135;-54
2023/07/06 08:42:47;;;;;;;3.20;1.25;;;17.90;99.90;;;;;;5134966;27;20039;-55
2023/07/06 08:45:21;;;;;;;3.15;0.70;;;17.90;99.90;;;;;;5115563;27;20046;-54
2023/07/06 08:47:48;;;;;;;2.60;0.80;;;18.00;99.90;;;;;;5117031;27;20579;-50
2023/07/06 08:50:20;;;;;;;2.75;0.70;;;18.10;99.90;;;;;;5116544;27;20051;-54
2023/07/06 08:52:46;;;;;;;1.98;0.82;;;18.10;99.90;;;;;;5134641;27;20055;-52
2023/07/06 08:55:15;;;;;;;3.63;1.20;;;18.10;99.90;;;;;;5134845;27;20120;-54
2023/07/06 08:57:41;;;;;;;2.72;0.52;;;18.20;99.90;;;;;;5134659;27;20411;-54
2023/07/06 09:00:27;;;;;;;4.10;0.80;;;18.20;99.90;;;;;;5116204;27;20039;-49
2023/07/06 09:02:59;;;;;;;3.53;0.80;;;18.30;99.90;;;;;;5134554;27;20491;-53
2023/07/06 09:05:31;;;;;;;3.85;1.10;;;18.30;99.90;;;;;;5134848;27;20125;-54
2023/07/06 09:07:57;;;;;;;2.65;0.63;;;18.20;99.90;;;;;;5134913;27;20050;-50
2023/07/06 09:10:26;;;;;;;1.90;0.85;;;18.20;99.90;;;;;;5134443;28;20083;-54
2023/07/06 09:13:11;;;;;;;2.33;0.60;;;18.20;99.90;;;;;;5134568;28;20043;-53
2023/07/06 09:15:37;;;;;;;2.03;0.80;;;18.20;99.90;;;;;;5134302;28;20047;-54
2023/07/06 09:18:03;;;;;;;2.80;0.70;;;18.20;99.90;;;;;;5116368;28;20126;-55
2023/07/06 09:20:31;;;;;;;2.20;0.70;;;18.20;99.90;;;;;;5134902;28;20050;-53
2023/07/06 09:22:57;;;;;;;2.88;0.90;;;18.20;99.90;;;;;;5134345;28;20392;-53
2023/07/06 09:25:28;;;;;;;2.45;0.70;;;18.20;99.90;;;;;;5134276;28;20035;-49
2023/07/06 09:27:57;;;;;;;2.10;0.70;;;18.30;99.90;;;;;;5134271;28;20039;-53
2023/07/06 09:30:30;;;;;;;2.78;0.77;;;18.30;99.90;;;;;;5134106;28;20479;-53
2023/07/06 09:33:31;;;;;;;2.30;0.70;;;18.40;99.90;;;;;;5134345;28;20047;-53
2023/07/06 09:35:57;;;;;;;2.50;0.63;;;18.50;99.90;;;;;;5129949;28;20061;-46
2023/07/06 09:38:24;;;;;;;;;;;18.60;99.90;;;;;;5134461;28;20043;-54
2023/07/06 09:40:52;;;;;;;2.80;0.80;;;18.60;99.90;;;;;;5116083;28;19944;-55
2023/07/06 09:43:29;;;;;;;3.15;1.00;;;18.60;99.90;;;;;;5134347;28;20118;-55
2023/07/06 09:45:59;;;;;;;2.20;0.82;;;18.60;99.90;;;;;;5134188;28;20047;-55
2023/07/06 09:48:27;;;;;;;2.63;0.90;;;18.60;99.90;;;;;;5134092;28;20043;-54
2023/07/06 09:51:11;;;;;;;3.80;1.42;;;18.60;99.90;;;;;;5115919;28;20039;-55
2023/07/06 09:53:48;;;;;;;1.88;0.80;;;18.60;99.90;;;;;;5115905;28;20411;-55
2023/07/06 09:56:14;;;;;;;3.13;0.80;;;18.70;99.90;;;;;;5136371;27;20051;-54
2023/07/06 09:58:41;;;;;;;3.10;1.10;;;18.70;99.90;;;;;;5138062;27;20062;-55
2023/07/06 10:01:15;;;;;;;4.25;0.90;;;18.80;99.90;;;;;;5138137;27;20556;-55
2023/07/06 10:03:50;;;;;;;2.30;1.00;;;18.90;99.90;;;;;;5119783;27;20380;-56
2023/07/06 10:06:35;;;;;;;2.65;1.20;;;19.00;99.90;;;;;;5138049;27;20047;-49
2023/07/06 10:09:14;;;;;;;1.83;0.70;;;19.10;99.90;;;;;;5137863;27;20050;-56
2023/07/06 10:11:51;;;;;;;1.50;0.70;;;19.10;99.90;;;;;;5137778;27;20047;-56
2023/07/06 10:14:43;;;;;;;3.08;0.90;;;19.10;99.90;;;;;;5138254;27;20046;-55
2023/07/06 10:17:37;;;;;;;2.42;0.85;;;19.00;99.90;;;;;;5137775;27;20047;-55
2023/07/06 10:20:30;;;;;;;1.67;0.68;;;18.90;99.90;;;;;;5119381;27;20043;-53
2023/07/06 10:23:23;;;;;;;2.13;0.73;;;18.80;99.90;;;;;;5137922;27;20138;-55
2023/07/06 10:26:07;;;;;;;2.20;0.90;;;18.80;99.90;;;;;;5137727;27;20039;-55
2023/07/06 10:28:43;;;;;;;2.00;0.80;;;18.80;99.90;;;;;;5137248;27;20096;-55
2023/07/06 10:31:16;;;;;;;3.78;0.98;;;18.70;99.90;;;;;;5137585;27;20046;-55
2023/07/06 10:33:59;;;;;;;2.75;1.00;;;18.70;99.90;;;;;;5137529;27;20045;-55
2023/07/06 10:36:32;;;;;;;6.38;2.63;;;18.60;99.90;;;;;;5137406;27;20054;-54
2023/07/06 10:38:59;;;;;;;5.78;1.60;;;18.60;99.90;;;;;;5137271;27;20380;-55
2023/07/06 10:41:32;;;;;;;2.53;0.90;;;18.60;99.90;;;;;;5119325;27;20047;-53
2023/07/06 10:44:02;;;;;;;3.50;0.80;;;18.50;99.90;;;;;;5119002;27;20043;-53
2023/07/06 10:46:31;;;;;;;2.83;0.90;;;18.50;99.90;;;;;;5137384;27;20047;-54
2023/07/06 10:49:16;;;;;;;3.90;0.60;;;18.50;99.90;;;;;;5137143;27;20120;-55
2023/07/06 10:52:01;;;;;;;1.45;0.63;;;18.50;99.90;;;;;;5137183;27;20043;-53
2023/07/06 10:54:32;;;;;;;2.30;0.60;;;18.60;99.90;;;;;;5119411;27;20376;-49
2023/07/06 10:57:18;;;;;;;1.73;0.70;;;18.80;99.90;;;;;;5119112;27;20059;-54
2023/07/06 10:59:48;;;;;;;2.88;0.90;;;19.20;99.90;;;;;;5136281;27;20495;-52
2023/07/06 11:02:18;;;;;;;1.95;0.70;;;19.50;99.90;;;;;;5136939;27;20047;-55
2023/07/06 11:04:57;;;;;;;1.65;0.60;;;19.70;99.90;;;;;;5136692;27;20039;-56
2023/07/06 11:07:38;;;;;;;1.98;0.70;;;19.70;99.90;;;;;;5135896;27;20126;-56
2023/07/06 11:10:21;;;;;;;1.50;0.60;;;19.60;99.90;;;;;;5136441;27;20483;-56
2023/07/06 11:13:19;;;;;;;1.80;0.60;;;19.70;99.90;;;;;;5136689;27;20085;-54
2023/07/06 11:15:47;;;;;;;1.40;0.50;;;19.80;99.90;;;;;;5125556;27;20499;-55
2023/07/06 11:18:22;;;;;;;1.08;0.60;;;20.10;99.90;;;;;;5136512;27;20053;-55
2023/07/06 11:20:57;;;;;;;1.98;0.60;;;20.50;99.90;;;;;;5136413;27;20043;-50
2023/07/06 11:23:35;;;;;;;1.55;0.63;;;20.80;99.90;;;;;;5136422;27;20502;-56
2023/07/06 11:26:07;;;;;;;1.98;0.50;;;21.20;99.90;;;;;;5136350;27;20510;-52
2023/07/06 11:28:33;;;;;;;1.75;0.60;;;21.30;99.90;;;;;;5136222;27;20053;-55
2023/07/06 11:31:30;;;;;;;3.13;0.70;;;21.30;99.90;;;;;;5136040;27;20043;-54
2023/07/06 11:34:18;;;;;;;1.95;0.70;;;21.20;99.90;;;;;;5136438;27;20066;-55
2023/07/06 11:37:38;;;;;;;1.50;0.57;;;21.00;99.90;;;;;;5136368;27;20047;-55
2023/07/06 11:40:26;;;;;;;0.98;0.47;;;20.80;99.90;;;;;;5102118;27;20062;-55
2023/07/06 11:42:59;;;;;;;2.17;1.00;;;20.50;99.90;;;;;;5136356;27;20051;-53
2023/07/06 11:45:50;;;;;;;1.58;0.70;;;20.30;99.90;;;;;;5117634;27;20082;-55
2023/07/06 11:48:40;;;;;;;2.90;0.82;;;20.10;99.90;;;;;;5136185;27;20139;-55
2023/07/06 11:51:08;;;;;;;2.35;0.65;;;20.00;99.90;;;;;;5135987;27;20086;-52
2023/07/06 11:53:44;;;;;;;1.63;0.60;;;19.80;99.90;;;;;;5135816;27;20049;-54
2023/07/06 11:56:32;;;;;;;2.97;0.88;;;19.70;99.90;;;;;;5135579;27;20055;-55
2023/07/06 11:59:01;;;;;;;3.10;0.63;;;19.60;99.90;;;;;;5136241;27;20051;-55
2023/07/06 12:01:40;;;;;;;1.17;0.57;;;19.50;99.90;;;;;;5117769;27;20050;-55
2023/07/06 12:04:23;;;;;;;2.33;0.95;;;19.40;99.90;;;;;;5135458;27;20544;-55
2023/07/06 12:06:50;;;;;;;2.38;0.88;;;19.40;99.90;;;;;;5135487;27;20139;-52
2023/07/06 12:09:23;;;;;;;1.60;0.70;;;19.40;99.90;;;;;;5135661;27;20050;-56
2023/07/06 12:12:08;;;;;;;1.83;0.80;;;19.40;99.90;;;;;;5135778;27;20452;-55
2023/07/06 12:14:37;;;;;;;1.85;0.68;;;19.50;99.90;;;;;;5135318;27;20128;-52
2023/07/06 12:17:05;;;;;;;2.58;0.80;;;19.50;99.90;;;;;;5135291;27;20080;-52
2023/07/06 12:19:31;;;;;;;2.33;0.52;;;19.70;99.90;;;;;;5135148;27;20051;-53
2023/07/06 12:21:58;;;;;;;4.72;0.68;;;19.80;99.90;;;;;;5135142;27;20045;-54
2023/07/06 12:24:26;;;;;;;2.30;0.57;;;19.90;99.90;;;;;;5135210;27;20043;-49
2023/07/06 12:26:58;;;;;;;3.45;0.80;;;20.00;99.90;;;;;;5135107;27;20035;-49
2023/07/06 12:29:27;;;;;;;2.42;0.63;;;20.10;99.90;;;;;;5135220;27;20129;-48
2023/07/06 12:31:57;;;;;;;2.10;0.60;;;20.10;99.90;;;;;;5135135;27;20047;-52
2023/07/06 12:34:29;;;;;;;2.15;0.60;;;20.10;99.90;;;;;;5116745;27;20048;-53
2023/07/06 12:36:56;;;;;;;3.28;0.98;;;20.00;99.90;;;;;;5135035;27;20116;-51
2023/07/06 12:39:23;;;;;;;1.52;0.60;;;20.00;99.90;;;;;;5134987;27;20436;-54
2023/07/06 12:41:51;;;;;;;1.92;0.73;;;19.90;99.90;;;;;;5116817;27;20039;-54
2023/07/06 12:44:18;;;;;;;1.27;0.60;;;19.90;99.90;;;;;;5134600;27;20047;-51
2023/07/06 12:46:53;;;;;;;2.08;0.60;;;19.80;99.90;;;;;;5134936;27;20043;-52
2023/07/06 12:49:22;;;;;;;1.83;0.50;;;19.80;99.90;;;;;;5134897;27;20514;-54
2023/07/06 12:51:55;;;;;;;1.08;0.43;;;19.80;99.90;;;;;;5134985;27;20043;-50
2023/07/06 12:54:25;;;;;;;2.05;0.60;;;19.80;99.90;;;;;;5134704;27;20078;-55
2023/07/06 12:57:05;;;;;;;2.13;0.80;;;19.80;99.90;;;;;;5116357;27;20054;-55
2023/07/06 12:59:36;;;;;;;2.38;0.70;;;19.90;99.90;;;;;;5135046;27;20133;-53
2023/07/06 13:02:36;;;;;;;1.95;0.70;;;20.10;99.90;;;;;;5116972;28;20054;-55
2023/07/06 13:05:15;;;;;;;1.58;0.50;;;20.30;99.90;;;;;;5134552;27;20050;-55